createdAt,value
2023-12-10T00:00:22.273Z,79.26
2023-12-10T00:03:37.571Z,79.30
2023-12-10T00:06:26.922Z,79.37
2023-12-10T00:09:18.183Z,79.18
2023-12-10T00:12:00.617Z,79.23
2023-12-10T00:14:54.626Z,79.26
2023-12-10T00:17:45.222Z,79.27
2023-12-10T00:20:34.716Z,79.27
2023-12-10T00:23:23.925Z,79.22
2023-12-10T00:26:13.921Z,79.24
2023-12-10T00:29:04.203Z,79.14
2023-12-10T00:31:53.266Z,79.21
2023-12-10T00:34:44.516Z,79.19
2023-12-10T00:37:33.885Z,79.21
2023-12-10T00:40:22.460Z,79.24
2023-12-10T00:43:13.246Z,79.36
2023-12-10T00:46:02.409Z,79.29
2023-12-10T00:48:42.306Z,79.27
2023-12-10T00:51:31.805Z,79.35
2023-12-10T00:54:22.397Z,79.36
2023-12-10T00:57:13.254Z,79.24
2023-12-10T01:00:02.991Z,79.38
2023-12-10T01:02:52.544Z,79.35
2023-12-10T01:05:44.093Z,79.35
2023-12-10T01:08:33.635Z,79.26
2023-12-10T01:11:23.852Z,79.34
2023-12-10T01:14:16.153Z,79.33
2023-12-10T01:17:08.774Z,79.39
2023-12-10T01:20:00.338Z,79.46
2023-12-10T01:22:49.624Z,79.32
2023-12-10T01:25:39.056Z,79.37
2023-12-10T01:28:32.037Z,79.26
2023-12-10T01:31:24.332Z,79.24
2023-12-10T01:34:13.106Z,79.21
2023-12-10T01:37:05.752Z,79.23
2023-12-10T01:39:54.689Z,79.29
2023-12-10T01:42:45.211Z,79.21
2023-12-10T01:45:34.548Z,79.21
2023-12-10T01:49:25.962Z,79.22
2023-12-10T01:52:40.207Z,79.30
2023-12-10T01:55:30.098Z,79.28
2023-12-10T01:58:24.437Z,79.29
2023-12-10T02:01:09.759Z,79.19
2023-12-10T02:04:06.557Z,79.20
2023-12-10T02:06:55.827Z,79.06
2023-12-10T02:09:45.379Z,79.15
2023-12-10T02:12:36.220Z,79.17
2023-12-10T02:15:28.849Z,79.17
2023-12-10T02:18:20.698Z,79.30
2023-12-10T02:21:11.861Z,79.28
2023-12-10T02:24:32.147Z,79.22
2023-12-10T02:27:27.563Z,79.21
2023-12-10T02:30:17.787Z,79.19
2023-12-10T02:40:45.450Z,79.11
2023-12-10T02:43:38.064Z,79.19
2023-12-10T02:46:54.835Z,79.07
2023-12-10T02:50:27.077Z,79.11
2023-12-10T02:58:25.092Z,79.03
2023-12-10T03:02:27.131Z,79.11
2023-12-10T03:06:25.120Z,79.10
2023-12-10T03:38:26.045Z,78.96
2023-12-10T03:45:39.482Z,78.97
2023-12-10T03:48:43.760Z,78.99
2023-12-10T03:51:33.163Z,79.06
2023-12-10T03:54:22.400Z,79.12
2023-12-10T03:57:11.736Z,79.12
2023-12-10T04:00:05.324Z,79.02
2023-12-10T04:02:57.390Z,79.08
2023-12-10T04:05:46.655Z,79.18
2023-12-10T04:08:35.640Z,79.07
2023-12-10T04:11:24.288Z,79.09
2023-12-10T04:14:13.457Z,79.34
2023-12-10T04:17:07.312Z,79.21
2023-12-10T04:19:55.533Z,79.28
2023-12-10T04:22:43.497Z,79.21
2023-12-10T04:25:31.513Z,79.18
2023-12-10T04:28:27.006Z,79.21
2023-12-10T04:31:16.712Z,79.14
2023-12-10T04:34:06.162Z,79.20
2023-12-10T04:36:55.537Z,79.17
2023-12-10T04:39:47.202Z,79.20
2023-12-10T04:42:39.958Z,79.32
2023-12-10T04:45:29.593Z,79.20
2023-12-10T04:48:18.782Z,79.20
2023-12-10T04:51:08.868Z,79.28
2023-12-10T04:53:58.074Z,79.13
2023-12-10T04:56:48.435Z,79.10
2023-12-10T04:59:37.706Z,79.04
2023-12-10T05:02:26.232Z,78.99
2023-12-10T05:05:18.721Z,79.08
2023-12-10T05:08:07.876Z,79.03
2023-12-10T05:12:05.825Z,79.18
2023-12-10T05:14:27.615Z,79.05
2023-12-10T05:17:20.459Z,79.07
2023-12-10T05:20:11.471Z,78.95
2023-12-10T05:23:03.105Z,78.99
2023-12-10T05:25:52.520Z,78.95
2023-12-10T05:28:40.560Z,78.91
2023-12-10T05:31:35.641Z,78.92
2023-12-10T05:34:24.584Z,78.90
2023-12-10T05:37:16.763Z,78.80
2023-12-10T05:40:08.171Z,78.92
2023-12-10T05:42:57.636Z,78.83
2023-12-10T05:45:46.842Z,78.84
2023-12-10T05:48:36.276Z,78.85
2023-12-10T05:51:28.739Z,78.84
2023-12-10T05:54:38.325Z,78.58
2023-12-10T05:57:28.378Z,78.84
2023-12-10T06:00:19.748Z,78.76
2023-12-10T06:03:11.151Z,78.74
2023-12-10T06:06:00.479Z,78.80
2023-12-10T06:08:49.826Z,78.70
2023-12-10T06:11:39.953Z,78.80
2023-12-10T06:14:28.760Z,78.79
2023-12-10T06:17:17.250Z,78.77
2023-12-10T06:20:10.099Z,78.81
2023-12-10T06:22:59.215Z,78.98
2023-12-10T06:25:53.082Z,78.83
2023-12-10T06:28:42.776Z,78.96
2023-12-10T06:31:39.195Z,78.88
2023-12-10T06:34:28.609Z,78.98
2023-12-10T06:37:17.671Z,78.94
2023-12-10T06:40:09.973Z,78.80
2023-12-10T06:42:59.124Z,78.89
2023-12-10T06:45:49.070Z,79.03
2023-12-10T06:48:40.997Z,78.88
2023-12-10T06:51:30.597Z,79.01
2023-12-10T06:54:23.601Z,78.90
2023-12-10T06:57:33.198Z,78.96
2023-12-10T07:00:26.961Z,78.91
2023-12-10T07:03:17.479Z,78.88
2023-12-10T07:06:07.928Z,79.03
2023-12-10T07:08:50.922Z,79.01
2023-12-10T07:11:39.203Z,78.99
2023-12-10T07:14:29.642Z,78.96
2023-12-10T07:17:19.073Z,79.05
2023-12-10T07:20:10.044Z,79.08
2023-12-10T07:22:59.698Z,79.01
2023-12-10T07:25:48.635Z,78.95
2023-12-10T07:28:38.218Z,78.93
2023-12-10T07:31:27.665Z,79.00
2023-12-10T07:34:16.931Z,78.93
2023-12-10T07:37:06.878Z,79.03
2023-12-10T07:39:56.694Z,78.96
2023-12-10T07:42:46.404Z,79.00
2023-12-10T07:45:35.769Z,78.98
2023-12-10T07:48:28.597Z,78.98
2023-12-10T07:51:18.367Z,79.07
2023-12-10T07:54:07.490Z,78.92
2023-12-10T07:56:58.941Z,78.92
2023-12-10T07:59:48.202Z,78.99
2023-12-10T08:02:37.546Z,79.07
2023-12-10T08:05:26.858Z,79.02
2023-12-10T08:08:17.973Z,79.18
2023-12-10T08:11:10.063Z,79.09
2023-12-10T08:13:59.346Z,79.09
2023-12-10T08:17:14.435Z,79.08
2023-12-10T08:20:05.651Z,79.04
2023-12-10T08:22:54.760Z,79.01
2023-12-10T08:25:44.150Z,78.97
2023-12-10T08:28:33.921Z,79.00
2023-12-10T08:31:26.214Z,79.04
2023-12-10T08:34:15.183Z,79.11
2023-12-10T08:37:04.658Z,79.16
2023-12-10T08:39:54.032Z,79.12
2023-12-10T08:42:45.518Z,79.13
2023-12-10T08:45:36.018Z,79.03
2023-12-10T08:48:29.671Z,79.09
2023-12-10T08:51:18.976Z,79.10
2023-12-10T08:54:09.483Z,79.05
2023-12-10T08:56:57.732Z,79.14
2023-12-10T09:00:00.738Z,79.24
2023-12-10T09:02:52.795Z,79.16
2023-12-10T09:05:42.189Z,79.16
2023-12-10T09:08:31.208Z,79.15
2023-12-10T09:11:20.598Z,79.12
2023-12-10T09:14:11.664Z,79.14
2023-12-10T09:17:00.990Z,79.04
2023-12-10T09:19:50.465Z,79.01
2023-12-10T09:22:33.413Z,79.03
2023-12-10T09:25:45.021Z,79.01
2023-12-10T09:28:35.075Z,78.95
2023-12-10T09:31:30.775Z,79.09
2023-12-10T09:34:13.554Z,78.98
2023-12-10T09:37:24.657Z,79.14
2023-12-10T09:40:10.863Z,79.12
2023-12-10T09:43:00.086Z,79.08
2023-12-10T09:45:49.708Z,79.03
2023-12-10T09:48:45.792Z,79.07
2023-12-10T09:51:36.941Z,79.07
2023-12-10T09:54:30.074Z,79.02
2023-12-10T09:57:23.035Z,79.05
2023-12-10T10:00:17.767Z,79.08
2023-12-10T10:03:07.952Z,79.11
2023-12-10T10:05:57.325Z,78.95
2023-12-10T10:08:48.109Z,79.00
2023-12-10T10:11:38.359Z,79.01
2023-12-10T10:14:30.127Z,79.01
2023-12-10T10:17:27.809Z,78.94
2023-12-10T10:20:17.654Z,79.08
2023-12-10T10:23:09.099Z,78.96
2023-12-10T10:25:58.227Z,78.96
2023-12-10T10:28:48.393Z,78.93
2023-12-10T10:31:48.382Z,78.83
2023-12-10T10:34:38.852Z,78.91
2023-12-10T10:37:31.486Z,79.04
2023-12-10T10:40:20.872Z,78.95
2023-12-10T10:43:12.267Z,79.05
2023-12-10T10:46:03.872Z,79.05
2023-12-10T10:48:55.849Z,78.94
2023-12-10T10:52:14.466Z,78.86
2023-12-10T10:55:07.061Z,78.93
2023-12-10T10:57:56.050Z,78.84
2023-12-10T11:00:45.549Z,78.88
2023-12-10T11:03:35.867Z,78.83
2023-12-10T11:06:29.545Z,78.74
2023-12-10T11:09:20.226Z,78.94
2023-12-10T11:12:10.399Z,78.83
2023-12-10T11:14:53.684Z,78.72
2023-12-10T11:17:52.592Z,78.93
2023-12-10T11:20:47.716Z,78.77
2023-12-10T11:23:37.295Z,78.71
2023-12-10T11:26:40.240Z,78.77
2023-12-10T11:29:30.169Z,78.80
2023-12-10T11:32:19.301Z,78.83
2023-12-10T11:35:09.453Z,78.87
2023-12-10T11:38:02.712Z,78.81
2023-12-10T11:40:56.728Z,78.88
2023-12-10T11:43:52.752Z,78.86
2023-12-10T11:46:49.962Z,78.91
2023-12-10T11:50:26.292Z,78.88
2023-12-10T11:52:50.897Z,78.70
2023-12-10T11:55:42.218Z,78.70
2023-12-10T11:58:34.225Z,78.78
2023-12-10T12:01:23.707Z,78.78
2023-12-10T12:04:17.950Z,78.54
2023-12-10T12:07:08.262Z,78.80
2023-12-10T12:10:00.839Z,78.75
2023-12-10T12:12:50.394Z,78.74
2023-12-10T12:15:46.356Z,78.70
2023-12-10T12:18:35.848Z,78.69
2023-12-10T12:21:28.073Z,78.69
2023-12-10T12:24:17.308Z,78.74
2023-12-10T12:27:07.917Z,78.76
2023-12-10T12:29:48.160Z,78.74
2023-12-10T12:32:37.833Z,78.67
2023-12-10T12:35:28.050Z,78.71
2023-12-10T12:38:18.327Z,78.66
2023-12-10T12:41:08.201Z,78.71
2023-12-10T12:44:00.390Z,78.67
2023-12-10T12:46:53.692Z,78.72
2023-12-10T12:49:43.884Z,78.71
2023-12-10T12:52:35.217Z,78.72
2023-12-10T12:55:27.628Z,78.75
2023-12-10T12:58:16.396Z,78.72
2023-12-10T13:01:07.503Z,78.83
2023-12-10T13:04:04.062Z,78.71
2023-12-10T13:06:53.954Z,78.71
2023-12-10T13:09:43.234Z,78.62
2023-12-10T13:12:32.728Z,78.84
2023-12-10T13:15:15.458Z,78.77
2023-12-10T13:18:04.814Z,78.74
2023-12-10T13:20:53.917Z,78.75
2023-12-10T13:23:42.099Z,78.70
2023-12-10T13:26:33.094Z,78.67
2023-12-10T13:29:22.464Z,78.58
2023-12-10T13:32:11.821Z,78.72
2023-12-10T13:35:02.575Z,78.59
2023-12-10T13:37:54.034Z,78.63
2023-12-10T13:40:44.085Z,78.74
2023-12-10T13:43:36.397Z,78.73
2023-12-10T13:46:27.498Z,78.54
2023-12-10T13:49:17.126Z,78.61
2023-12-10T13:52:10.167Z,78.71
2023-12-10T13:54:59.800Z,78.63
2023-12-10T13:57:49.627Z,78.53
2023-12-10T14:00:39.461Z,78.62
2023-12-10T14:03:32.350Z,78.58
2023-12-10T14:06:21.880Z,78.67
2023-12-10T14:09:16.019Z,78.58
2023-12-10T14:11:57.991Z,78.75
2023-12-10T14:14:52.105Z,78.60
2023-12-10T14:17:41.445Z,78.64
2023-12-10T14:20:31.092Z,78.58
2023-12-10T14:23:20.165Z,78.51
2023-12-10T14:26:10.506Z,78.62
2023-12-10T14:29:00.308Z,78.64
2023-12-10T14:31:49.992Z,78.58
2023-12-10T14:34:39.782Z,78.63
2023-12-10T14:37:29.401Z,78.60
2023-12-10T14:40:17.738Z,78.57
2023-12-10T14:43:11.250Z,78.74
2023-12-10T14:46:00.277Z,78.67
2023-12-10T14:48:56.600Z,78.63
2023-12-10T14:51:45.869Z,78.53
2023-12-10T14:54:35.561Z,78.66
2023-12-10T14:58:25.918Z,78.53
2023-12-10T15:00:35.784Z,78.59
2023-12-10T15:03:34.411Z,78.67
2023-12-10T15:06:26.858Z,78.71
2023-12-10T15:09:17.252Z,78.66
2023-12-10T15:12:10.310Z,78.69
2023-12-10T15:14:59.683Z,78.78
2023-12-10T15:17:53.268Z,78.71
2023-12-10T15:20:42.569Z,78.67
2023-12-10T15:23:32.413Z,78.68
2023-12-10T15:26:21.885Z,78.68
2023-12-10T15:29:14.152Z,78.75
2023-12-10T15:32:03.694Z,78.78
2023-12-10T15:34:55.910Z,78.81
2023-12-10T15:37:45.632Z,78.74
2023-12-10T15:40:31.871Z,78.74
2023-12-10T15:43:23.217Z,78.81
2023-12-10T15:46:12.840Z,78.73
2023-12-10T15:49:03.916Z,78.78
2023-12-10T15:51:54.916Z,78.71
2023-12-10T15:54:44.176Z,78.90
2023-12-10T15:57:35.281Z,78.86
2023-12-10T16:00:26.897Z,78.76
2023-12-10T16:03:36.639Z,78.95
2023-12-10T16:06:30.343Z,78.97
2023-12-10T16:09:20.507Z,78.73
2023-12-10T16:12:12.658Z,78.82
2023-12-10T16:15:04.103Z,78.83
2023-12-10T16:17:56.924Z,78.83
2023-12-10T16:20:39.554Z,78.81
2023-12-10T16:23:31.816Z,78.82
2023-12-10T16:26:23.013Z,78.80
2023-12-10T16:29:15.560Z,78.88
2023-12-10T16:32:11.024Z,78.86
2023-12-10T16:34:51.296Z,78.85
2023-12-10T16:37:50.564Z,78.89
2023-12-10T16:40:39.789Z,78.82
2023-12-10T16:43:33.331Z,78.93
2023-12-10T16:46:22.645Z,78.87
2023-12-10T16:49:19.100Z,78.84
2023-12-10T16:52:09.411Z,78.89
2023-12-10T16:55:03.824Z,78.96
2023-12-10T16:57:57.362Z,78.97
2023-12-10T17:00:52.946Z,79.08
2023-12-10T17:03:43.799Z,78.97
2023-12-10T17:06:38.294Z,78.93
2023-12-10T17:09:29.614Z,78.99
2023-12-10T17:12:19.508Z,78.90
2023-12-10T17:15:13.554Z,78.93
2023-12-10T17:18:07.383Z,79.00
2023-12-10T17:21:51.267Z,79.00
2023-12-10T17:24:09.926Z,78.98
2023-12-10T17:27:04.187Z,79.03
2023-12-10T17:30:08.859Z,79.04
2023-12-10T17:32:58.772Z,79.10
2023-12-10T17:35:48.249Z,78.93
2023-12-10T17:38:48.234Z,78.94
2023-12-10T17:41:42.637Z,78.99
2023-12-10T17:44:37.535Z,79.08
2023-12-10T17:47:42.050Z,78.97
2023-12-10T17:50:33.117Z,79.05
2023-12-10T17:53:23.649Z,79.06
2023-12-10T17:56:14.150Z,79.14
2023-12-10T17:59:08.445Z,79.13
2023-12-10T18:01:58.249Z,79.09
2023-12-10T18:05:01.440Z,79.02
2023-12-10T18:07:52.077Z,79.10
2023-12-10T18:10:37.404Z,79.16
2023-12-10T18:13:29.289Z,79.05
2023-12-10T18:16:22.368Z,79.12
2023-12-10T18:19:14.118Z,79.26
2023-12-10T18:22:06.685Z,79.18
2023-12-10T18:24:55.761Z,79.22
2023-12-10T18:27:45.570Z,79.18
2023-12-10T18:30:36.395Z,79.06
2023-12-10T18:33:28.288Z,79.19
2023-12-10T18:36:18.048Z,79.08
2023-12-10T18:39:08.496Z,79.13
2023-12-10T18:41:58.893Z,79.24
2023-12-10T18:44:49.186Z,79.23
2023-12-10T18:48:08.033Z,79.24
2023-12-10T18:51:02.497Z,79.31
2023-12-10T18:53:53.672Z,79.24
2023-12-10T18:56:43.098Z,79.30
2023-12-10T18:59:35.265Z,79.30
2023-12-10T19:02:26.434Z,79.23
2023-12-10T19:05:17.045Z,79.24
2023-12-10T19:08:07.608Z,79.22
2023-12-10T19:10:57.182Z,79.33
2023-12-10T19:13:48.939Z,79.34
2023-12-10T19:17:08.867Z,79.29
2023-12-10T19:20:03.089Z,79.31
2023-12-10T19:22:54.184Z,79.40
2023-12-10T19:25:48.260Z,79.20
2023-12-10T19:28:37.680Z,79.26
2023-12-10T19:31:44.295Z,79.25
2023-12-10T19:34:35.112Z,79.30
2023-12-10T19:37:25.839Z,79.33
2023-12-10T19:40:15.641Z,79.40
2023-12-10T19:43:05.562Z,79.51
2023-12-10T19:45:55.072Z,79.43
2023-12-10T19:48:47.435Z,79.36
2023-12-10T19:51:36.836Z,79.31
2023-12-10T19:54:31.475Z,79.31
2023-12-10T19:57:20.766Z,79.33
2023-12-10T20:00:11.715Z,79.37
2023-12-10T20:03:01.816Z,79.38
2023-12-10T20:05:53.441Z,79.48
2023-12-10T20:08:43.298Z,79.47
2023-12-10T20:11:35.545Z,79.52
2023-12-10T20:14:26.491Z,79.34
2023-12-10T20:17:16.365Z,79.39
2023-12-10T20:20:08.295Z,79.45
2023-12-10T20:22:57.676Z,79.40
2023-12-10T20:25:47.205Z,79.28
2023-12-10T20:28:36.473Z,79.40
2023-12-10T20:31:29.152Z,79.44
2023-12-10T20:34:26.889Z,79.45
2023-12-10T20:37:29.996Z,79.40
2023-12-10T20:40:17.002Z,79.58
2023-12-10T20:43:06.749Z,79.50
2023-12-10T20:45:57.289Z,79.44
2023-12-10T20:48:46.471Z,79.44
2023-12-10T20:51:36.799Z,79.43
2023-12-10T20:54:30.004Z,79.54
2023-12-10T20:57:19.560Z,79.55
2023-12-10T21:00:15.130Z,79.61
2023-12-10T21:03:06.224Z,79.56
2023-12-10T21:05:56.027Z,79.52
2023-12-10T21:08:47.139Z,79.41
2023-12-10T21:11:40.637Z,79.48
2023-12-10T21:14:32.043Z,79.50
2023-12-10T21:17:22.359Z,79.46
2023-12-10T21:20:12.543Z,79.49
2023-12-10T21:23:01.476Z,79.50
2023-12-10T21:25:50.061Z,79.51
2023-12-10T21:28:40.769Z,79.62
2023-12-10T21:31:30.700Z,79.63
2023-12-10T21:34:20.570Z,79.60
2023-12-10T21:37:00.540Z,79.56
2023-12-10T21:39:50.958Z,79.59
2023-12-10T21:42:40.429Z,79.57
2023-12-10T21:45:29.522Z,79.62
2023-12-10T21:48:19.438Z,79.56
2023-12-10T21:51:11.750Z,79.50
2023-12-10T21:54:04.385Z,79.58
2023-12-10T21:56:54.020Z,79.61
2023-12-10T21:59:43.289Z,79.68
2023-12-10T22:02:34.326Z,79.61
2023-12-10T22:05:23.951Z,79.51
2023-12-10T22:08:13.165Z,79.70
2023-12-10T22:11:03.082Z,79.66
2023-12-10T22:14:03.696Z,79.54
2023-12-10T22:16:56.599Z,79.62
2023-12-10T22:19:48.679Z,79.64
2023-12-10T22:22:29.220Z,79.67
2023-12-10T22:25:21.267Z,79.71
2023-12-10T22:28:14.152Z,79.75
2023-12-10T22:31:07.692Z,79.93
2023-12-10T22:34:04.054Z,79.76
2023-12-10T22:36:43.786Z,79.70
2023-12-10T22:39:39.496Z,79.74
2023-12-10T22:42:28.994Z,79.66
2023-12-10T22:45:21.632Z,79.67
2023-12-10T22:48:11.339Z,79.79
2023-12-10T22:51:14.478Z,79.80
2023-12-10T22:54:05.751Z,79.69
2023-12-10T22:57:02.087Z,79.78
2023-12-10T22:59:53.980Z,79.84
2023-12-10T23:02:46.389Z,79.73
2023-12-10T23:05:27.608Z,79.86
2023-12-10T23:08:18.458Z,79.73
2023-12-10T23:11:07.799Z,79.67
2023-12-10T23:13:49.682Z,79.71
2023-12-10T23:17:37.044Z,79.77
2023-12-10T23:19:56.035Z,79.80
2023-12-10T23:22:45.461Z,79.84
2023-12-10T23:25:35.924Z,79.83
2023-12-10T23:28:31.232Z,79.91
2023-12-10T23:31:31.876Z,79.97
2023-12-10T23:34:22.806Z,79.92
2023-12-10T23:37:12.189Z,79.85
2023-12-10T23:40:03.147Z,79.80
2023-12-10T23:42:56.073Z,79.79
2023-12-10T23:45:45.097Z,79.99
2023-12-10T23:48:33.446Z,79.89
2023-12-10T23:51:22.575Z,79.91
2023-12-10T23:54:12.900Z,79.94
2023-12-10T23:57:03.680Z,79.94
2023-12-10T23:59:58.381Z,80.03
